sensor_id;sensor_type;location;lat;lon;timestamp;temperature;humidity
4435;DHT22;46552;52.150;8.428;2022-11-15T00:01:01;10.20;99.90
4435;DHT22;46552;52.150;8.428;2022-11-15T00:03:28;10.30;99.90
4435;DHT22;46552;52.150;8.428;2022-11-15T00:06:01;10.20;99.90
4435;DHT22;46552;52.150;8.428;2022-11-15T00:08:29;10.20;99.90
4435;DHT22;46552;52.150;8.428;2022-11-15T00:10:58;10.20;99.90
4435;DHT22;46552;52.150;8.428;2022-11-15T00:13:26;10.20;99.90
4435;DHT22;46552;52.150;8.428;2022-11-15T00:15:57;10.30;99.90
4435;DHT22;46552;52.150;8.428;2022-11-15T00:18:27;10.30;99.90
4435;DHT22;46552;52.150;8.428;2022-11-15T00:20:55;10.30;99.90
4435;DHT22;46552;52.150;8.428;2022-11-15T00:23:22;10.30;99.90
4435;DHT22;46552;52.150;8.428;2022-11-15T00:25:55;10.30;99.90
4435;DHT22;46552;52.150;8.428;2022-11-15T00:28:22;10.30;99.90
4435;DHT22;46552;52.150;8.428;2022-11-15T00:30:50;10.30;99.90
4435;DHT22;46552;52.150;8.428;2022-11-15T00:33:17;10.30;99.90
4435;DHT22;46552;52.150;8.428;2022-11-15T00:35:47;10.30;99.90
4435;DHT22;46552;52.150;8.428;2022-11-15T00:38:14;10.40;99.90
4435;DHT22;46552;52.150;8.428;2022-11-15T00:40:41;10.40;99.90
4435;DHT22;46552;52.150;8.428;2022-11-15T00:43:09;10.40;99.90
4435;DHT22;46552;52.150;8.428;2022-11-15T00:45:36;10.50;99.90
4435;DHT22;46552;52.150;8.428;2022-11-15T00:48:04;10.50;99.90
4435;DHT22;46552;52.150;8.428;2022-11-15T00:50:32;10.50;99.90
4435;DHT22;46552;52.150;8.428;2022-11-15T00:53:01;10.50;99.90
4435;DHT22;46552;52.150;8.428;2022-11-15T00:55:28;10.50;99.90
4435;DHT22;46552;52.150;8.428;2022-11-15T00:57:55;10.50;99.90
4435;DHT22;46552;52.150;8.428;2022-11-15T01:00:22;10.60;99.90
4435;DHT22;46552;52.150;8.428;2022-11-15T01:02:49;10.60;99.90
4435;DHT22;46552;52.150;8.428;2022-11-15T01:05:16;10.60;99.90
4435;DHT22;46552;52.150;8.428;2022-11-15T01:07:44;10.60;99.90
4435;DHT22;46552;52.150;8.428;2022-11-15T01:10:13;10.60;99.90
4435;DHT22;46552;52.150;8.428;2022-11-15T01:12:40;10.60;99.90
4435;DHT22;46552;52.150;8.428;2022-11-15T01:15:08;10.60;99.90
4435;DHT22;46552;52.150;8.428;2022-11-15T01:17:36;10.70;99.90
4435;DHT22;46552;52.150;8.428;2022-11-15T01:20:05;10.70;99.90
4435;DHT22;46552;52.150;8.428;2022-11-15T01:22:32;10.80;99.90
4435;DHT22;46552;52.150;8.428;2022-11-15T01:24:59;10.80;99.90
4435;DHT22;46552;52.150;8.428;2022-11-15T01:27:28;10.80;99.90
4435;DHT22;46552;52.150;8.428;2022-11-15T01:29:55;10.80;99.90
4435;DHT22;46552;52.150;8.428;2022-11-15T01:32:22;10.90;99.90
4435;DHT22;46552;52.150;8.428;2022-11-15T01:34:49;10.90;99.90
4435;DHT22;46552;52.150;8.428;2022-11-15T01:37:16;10.90;99.90
4435;DHT22;46552;52.150;8.428;2022-11-15T01:39:43;11.00;99.90
4435;DHT22;46552;52.150;8.428;2022-11-15T01:42:13;11.00;99.90
4435;DHT22;46552;52.150;8.428;2022-11-15T01:44:44;11.00;99.90
4435;DHT22;46552;52.150;8.428;2022-11-15T01:47:16;11.10;99.90
4435;DHT22;46552;52.150;8.428;2022-11-15T01:49:51;11.10;99.90
4435;DHT22;46552;52.150;8.428;2022-11-15T01:52:21;11.20;99.90
4435;DHT22;46552;52.150;8.428;2022-11-15T01:54:51;11.20;99.90
4435;DHT22;46552;52.150;8.428;2022-11-15T01:57:20;11.30;99.90
4435;DHT22;46552;52.150;8.428;2022-11-15T01:59:49;11.30;99.90
4435;DHT22;46552;52.150;8.428;2022-11-15T02:02:16;11.30;99.90
4435;DHT22;46552;52.150;8.428;2022-11-15T02:04:45;11.40;99.90
4435;DHT22;46552;52.150;8.428;2022-11-15T02:07:16;11.40;99.90
4435;DHT22;46552;52.150;8.428;2022-11-15T02:09:44;11.50;99.90
4435;DHT22;46552;52.150;8.428;2022-11-15T02:12:15;11.50;99.90
4435;DHT22;46552;52.150;8.428;2022-11-15T02:14:47;11.50;99.90
4435;DHT22;46552;52.150;8.428;2022-11-15T02:17:26;11.60;99.90
4435;DHT22;46552;52.150;8.428;2022-11-15T02:23:13;11.50;99.90
4435;DHT22;46552;52.150;8.428;2022-11-15T02:25:52;11.60;99.90
4435;DHT22;46552;52.150;8.428;2022-11-15T02:28:44;11.60;99.90
4435;DHT22;46552;52.150;8.428;2022-11-15T02:31:20;11.60;99.90
4435;DHT22;46552;52.150;8.428;2022-11-15T02:33:59;11.70;99.90
4435;DHT22;46552;52.150;8.428;2022-11-15T02:36:37;11.70;99.90
4435;DHT22;46552;52.150;8.428;2022-11-15T02:39:10;11.70;99.90
4435;DHT22;46552;52.150;8.428;2022-11-15T02:41:47;11.70;99.90
4435;DHT22;46552;52.150;8.428;2022-11-15T02:44:20;11.70;99.90
4435;DHT22;46552;52.150;8.428;2022-11-15T02:46:54;11.70;99.90
4435;DHT22;46552;52.150;8.428;2022-11-15T02:49:40;11.80;99.90
4435;DHT22;46552;52.150;8.428;2022-11-15T02:52:08;11.80;99.90
4435;DHT22;46552;52.150;8.428;2022-11-15T02:54:35;11.80;99.90
4435;DHT22;46552;52.150;8.428;2022-11-15T02:57:05;11.80;99.90
4435;DHT22;46552;52.150;8.428;2022-11-15T03:02:54;11.90;99.90
4435;DHT22;46552;52.150;8.428;2022-11-15T03:05:29;11.90;99.90
4435;DHT22;46552;52.150;8.428;2022-11-15T03:08:02;11.90;99.90
4435;DHT22;46552;52.150;8.428;2022-11-15T03:10:41;11.90;99.90
4435;DHT22;46552;52.150;8.428;2022-11-15T03:13:17;11.90;99.90
4435;DHT22;46552;52.150;8.428;2022-11-15T03:15:51;11.90;99.90
4435;DHT22;46552;52.150;8.428;2022-11-15T03:18:29;11.90;99.90
4435;DHT22;46552;52.150;8.428;2022-11-15T03:21:00;11.90;99.90
4435;DHT22;46552;52.150;8.428;2022-11-15T03:23:29;11.90;99.90
4435;DHT22;46552;52.150;8.428;2022-11-15T03:25:58;11.90;99.90
4435;DHT22;46552;52.150;8.428;2022-11-15T03:28:29;11.90;99.90
4435;DHT22;46552;52.150;8.428;2022-11-15T03:31:03;12.00;99.90
4435;DHT22;46552;52.150;8.428;2022-11-15T03:33:54;12.00;99.90
4435;DHT22;46552;52.150;8.428;2022-11-15T03:36:25;12.00;99.90
4435;DHT22;46552;52.150;8.428;2022-11-15T03:38:54;12.10;99.90
4435;DHT22;46552;52.150;8.428;2022-11-15T03:41:25;12.10;99.90
4435;DHT22;46552;52.150;8.428;2022-11-15T03:43:59;12.20;99.90
4435;DHT22;46552;52.150;8.428;2022-11-15T03:46:33;12.20;99.90
4435;DHT22;46552;52.150;8.428;2022-11-15T03:49:07;12.20;99.90
4435;DHT22;46552;52.150;8.428;2022-11-15T03:51:36;12.30;99.90
4435;DHT22;46552;52.150;8.428;2022-11-15T03:54:04;12.40;99.90
4435;DHT22;46552;52.150;8.428;2022-11-15T03:56:31;12.40;99.90
4435;DHT22;46552;52.150;8.428;2022-11-15T03:58:58;12.40;99.90
4435;DHT22;46552;52.150;8.428;2022-11-15T04:01:26;12.40;99.90
4435;DHT22;46552;52.150;8.428;2022-11-15T04:03:53;12.50;99.90
4435;DHT22;46552;52.150;8.428;2022-11-15T04:06:22;12.50;99.90
4435;DHT22;46552;52.150;8.428;2022-11-15T04:08:49;12.50;99.90
4435;DHT22;46552;52.150;8.428;2022-11-15T04:11:16;12.50;99.90
4435;DHT22;46552;52.150;8.428;2022-11-15T04:13:43;12.60;99.90
4435;DHT22;46552;52.150;8.428;2022-11-15T04:16:10;12.50;99.90
4435;DHT22;46552;52.150;8.428;2022-11-15T04:18:37;12.60;99.90
4435;DHT22;46552;52.150;8.428;2022-11-15T04:21:05;12.60;99.90
4435;DHT22;46552;52.150;8.428;2022-11-15T04:23:51;12.60;99.90
4435;DHT22;46552;52.150;8.428;2022-11-15T04:26:35;12.60;99.90
4435;DHT22;46552;52.150;8.428;2022-11-15T04:29:02;12.60;99.90
4435;DHT22;46552;52.150;8.428;2022-11-15T04:31:43;12.60;99.90
4435;DHT22;46552;52.150;8.428;2022-11-15T04:34:10;12.60;99.90
4435;DHT22;46552;52.150;8.428;2022-11-15T04:36:37;12.60;99.90
4435;DHT22;46552;52.150;8.428;2022-11-15T04:39:22;12.60;99.90
4435;DHT22;46552;52.150;8.428;2022-11-15T04:41:49;12.60;99.90
4435;DHT22;46552;52.150;8.428;2022-11-15T04:44:17;12.60;99.90
4435;DHT22;46552;52.150;8.428;2022-11-15T04:46:44;12.60;99.90
4435;DHT22;46552;52.150;8.428;2022-11-15T04:49:11;12.60;99.90
4435;DHT22;46552;52.150;8.428;2022-11-15T04:51:39;12.60;99.90
4435;DHT22;46552;52.150;8.428;2022-11-15T04:54:06;12.50;99.90
4435;DHT22;46552;52.150;8.428;2022-11-15T04:56:38;12.50;99.90
4435;DHT22;46552;52.150;8.428;2022-11-15T04:59:05;12.50;99.90
4435;DHT22;46552;52.150;8.428;2022-11-15T05:01:32;12.50;99.90
4435;DHT22;46552;52.150;8.428;2022-11-15T05:03:59;12.50;99.90
4435;DHT22;46552;52.150;8.428;2022-11-15T05:06:44;12.50;99.90
4435;DHT22;46552;52.150;8.428;2022-11-15T05:09:12;12.50;99.90
4435;DHT22;46552;52.150;8.428;2022-11-15T05:11:41;12.50;99.90
4435;DHT22;46552;52.150;8.428;2022-11-15T05:14:08;12.40;99.90
4435;DHT22;46552;52.150;8.428;2022-11-15T05:16:36;12.40;99.90
4435;DHT22;46552;52.150;8.428;2022-11-15T05:19:04;12.40;99.90
4435;DHT22;46552;52.150;8.428;2022-11-15T05:21:32;12.40;99.90
4435;DHT22;46552;52.150;8.428;2022-11-15T05:23:59;12.40;99.90
4435;DHT22;46552;52.150;8.428;2022-11-15T05:26:27;12.40;99.90
4435;DHT22;46552;52.150;8.428;2022-11-15T05:28:57;12.40;99.90
4435;DHT22;46552;52.150;8.428;2022-11-15T05:31:25;12.40;99.90
4435;DHT22;46552;52.150;8.428;2022-11-15T05:33:54;12.30;99.90
4435;DHT22;46552;52.150;8.428;2022-11-15T05:36:29;12.30;99.90
4435;DHT22;46552;52.150;8.428;2022-11-15T05:38:58;12.20;99.90
4435;DHT22;46552;52.150;8.428;2022-11-15T05:41:29;12.20;99.90
4435;DHT22;46552;52.150;8.428;2022-11-15T05:43:59;12.20;99.90
4435;DHT22;46552;52.150;8.428;2022-11-15T05:46:28;12.20;99.90
4435;DHT22;46552;52.150;8.428;2022-11-15T05:48:56;12.10;99.90
4435;DHT22;46552;52.150;8.428;2022-11-15T05:51:24;12.10;99.90
4435;DHT22;46552;52.150;8.428;2022-11-15T05:53:55;12.10;99.90
4435;DHT22;46552;52.150;8.428;2022-11-15T05:56:24;12.00;99.90
4435;DHT22;46552;52.150;8.428;2022-11-15T05:58:53;12.00;99.90
4435;DHT22;46552;52.150;8.428;2022-11-15T06:01:24;12.00;99.90
4435;DHT22;46552;52.150;8.428;2022-11-15T06:03:51;12.00;99.90
4435;DHT22;46552;52.150;8.428;2022-11-15T06:06:20;12.00;99.90
4435;DHT22;46552;52.150;8.428;2022-11-15T06:08:48;12.00;99.90
4435;DHT22;46552;52.150;8.428;2022-11-15T06:11:15;12.00;99.90
4435;DHT22;46552;52.150;8.428;2022-11-15T06:13:43;12.00;99.90
4435;DHT22;46552;52.150;8.428;2022-11-15T06:16:10;12.00;99.90
4435;DHT22;46552;52.150;8.428;2022-11-15T06:18:39;12.00;99.90
4435;DHT22;46552;52.150;8.428;2022-11-15T06:21:06;12.00;99.90
4435;DHT22;46552;52.150;8.428;2022-11-15T06:23:35;12.00;99.90
4435;DHT22;46552;52.150;8.428;2022-11-15T06:26:03;12.00;99.90
4435;DHT22;46552;52.150;8.428;2022-11-15T06:28:30;12.00;99.90
4435;DHT22;46552;52.150;8.428;2022-11-15T06:31:02;12.00;99.90
4435;DHT22;46552;52.150;8.428;2022-11-15T06:33:31;12.00;99.90
4435;DHT22;46552;52.150;8.428;2022-11-15T06:36:04;12.00;99.90
4435;DHT22;46552;52.150;8.428;2022-11-15T06:38:31;12.00;99.90
4435;DHT22;46552;52.150;8.428;2022-11-15T06:41:02;12.10;99.90
4435;DHT22;46552;52.150;8.428;2022-11-15T06:43:29;12.10;99.90
4435;DHT22;46552;52.150;8.428;2022-11-15T06:45:58;12.10;99.90
4435;DHT22;46552;52.150;8.428;2022-11-15T06:48:25;12.10;99.90
4435;DHT22;46552;52.150;8.428;2022-11-15T06:50:53;12.10;99.90
4435;DHT22;46552;52.150;8.428;2022-11-15T06:53:22;12.10;99.90
4435;DHT22;46552;52.150;8.428;2022-11-15T06:55:49;12.10;99.90
4435;DHT22;46552;52.150;8.428;2022-11-15T06:58:17;12.10;99.90
4435;DHT22;46552;52.150;8.428;2022-11-15T07:00:44;12.10;99.90
4435;DHT22;46552;52.150;8.428;2022-11-15T07:03:11;12.10;99.90
4435;DHT22;46552;52.150;8.428;2022-11-15T07:05:38;12.10;99.90
4435;DHT22;46552;52.150;8.428;2022-11-15T07:08:06;12.20;99.90
4435;DHT22;46552;52.150;8.428;2022-11-15T07:10:36;12.20;99.90
4435;DHT22;46552;52.150;8.428;2022-11-15T07:13:03;12.20;99.90
4435;DHT22;46552;52.150;8.428;2022-11-15T07:15:30;12.20;99.90
4435;DHT22;46552;52.150;8.428;2022-11-15T07:18:00;12.30;99.90
4435;DHT22;46552;52.150;8.428;2022-11-15T07:20:27;12.30;99.90
4435;DHT22;46552;52.150;8.428;2022-11-15T07:22:59;12.40;99.90
4435;DHT22;46552;52.150;8.428;2022-11-15T07:25:27;12.50;99.90
4435;DHT22;46552;52.150;8.428;2022-11-15T07:27:56;12.50;99.90
4435;DHT22;46552;52.150;8.428;2022-11-15T07:30:24;12.60;99.90
4435;DHT22;46552;52.150;8.428;2022-11-15T07:32:53;12.60;99.90
4435;DHT22;46552;52.150;8.428;2022-11-15T07:35:20;12.70;99.90
4435;DHT22;46552;52.150;8.428;2022-11-15T07:37:53;12.70;99.90
4435;DHT22;46552;52.150;8.428;2022-11-15T07:40:21;12.70;99.90
4435;DHT22;46552;52.150;8.428;2022-11-15T07:42:48;12.70;99.90
4435;DHT22;46552;52.150;8.428;2022-11-15T07:45:24;12.80;99.90
4435;DHT22;46552;52.150;8.428;2022-11-15T07:47:53;12.80;99.90
4435;DHT22;46552;52.150;8.428;2022-11-15T07:50:21;12.80;99.90
4435;DHT22;46552;52.150;8.428;2022-11-15T07:52:53;12.80;99.90
4435;DHT22;46552;52.150;8.428;2022-11-15T07:55:21;12.80;99.90
4435;DHT22;46552;52.150;8.428;2022-11-15T07:57:48;12.80;99.90
4435;DHT22;46552;52.150;8.428;2022-11-15T08:00:16;12.80;99.90
4435;DHT22;46552;52.150;8.428;2022-11-15T08:02:47;12.90;99.90
4435;DHT22;46552;52.150;8.428;2022-11-15T08:05:15;12.80;99.90
4435;DHT22;46552;52.150;8.428;2022-11-15T08:07:42;12.80;99.90
4435;DHT22;46552;52.150;8.428;2022-11-15T08:10:10;12.90;99.90
4435;DHT22;46552;52.150;8.428;2022-11-15T08:12:37;12.90;99.90
4435;DHT22;46552;52.150;8.428;2022-11-15T08:15:06;12.90;99.90
4435;DHT22;46552;52.150;8.428;2022-11-15T08:17:33;13.00;99.90
4435;DHT22;46552;52.150;8.428;2022-11-15T08:20:03;13.10;99.90
4435;DHT22;46552;52.150;8.428;2022-11-15T08:22:30;13.10;99.90
4435;DHT22;46552;52.150;8.428;2022-11-15T08:24:57;13.20;99.90
4435;DHT22;46552;52.150;8.428;2022-11-15T08:27:25;13.20;99.90
4435;DHT22;46552;52.150;8.428;2022-11-15T08:29:52;13.30;99.90
4435;DHT22;46552;52.150;8.428;2022-11-15T08:32:20;13.30;99.90
4435;DHT22;46552;52.150;8.428;2022-11-15T08:34:47;13.40;99.90
4435;DHT22;46552;52.150;8.428;2022-11-15T08:37:16;13.50;99.90
4435;DHT22;46552;52.150;8.428;2022-11-15T08:39:43;13.50;99.90
4435;DHT22;46552;52.150;8.428;2022-11-15T08:42:10;13.60;99.90
4435;DHT22;46552;52.150;8.428;2022-11-15T08:44:38;13.80;99.90
4435;DHT22;46552;52.150;8.428;2022-11-15T08:47:05;14.00;99.90
4435;DHT22;46552;52.150;8.428;2022-11-15T08:49:33;14.40;99.90
4435;DHT22;46552;52.150;8.428;2022-11-15T08:52:00;14.70;99.90
4435;DHT22;46552;52.150;8.428;2022-11-15T08:54:29;15.20;99.90
4435;DHT22;46552;52.150;8.428;2022-11-15T08:56:56;15.90;99.90
4435;DHT22;46552;52.150;8.428;2022-11-15T08:59:24;16.90;99.90
4435;DHT22;46552;52.150;8.428;2022-11-15T09:01:51;18.00;99.90
4435;DHT22;46552;52.150;8.428;2022-11-15T09:04:19;19.10;99.90
4435;DHT22;46552;52.150;8.428;2022-11-15T09:06:47;19.90;99.40
4435;DHT22;46552;52.150;8.428;2022-11-15T09:09:14;20.30;98.40
4435;DHT22;46552;52.150;8.428;2022-11-15T09:11:45;20.60;97.40
4435;DHT22;46552;52.150;8.428;2022-11-15T09:14:13;21.20;96.00
4435;DHT22;46552;52.150;8.428;2022-11-15T09:16:41;21.10;95.80
4435;DHT22;46552;52.150;8.428;2022-11-15T09:19:09;21.20;94.40
4435;DHT22;46552;52.150;8.428;2022-11-15T09:21:36;21.40;94.50
4435;DHT22;46552;52.150;8.428;2022-11-15T09:24:03;21.80;94.10
4435;DHT22;46552;52.150;8.428;2022-11-15T09:26:30;22.20;93.20
4435;DHT22;46552;52.150;8.428;2022-11-15T09:29:00;22.50;92.30
4435;DHT22;46552;52.150;8.428;2022-11-15T09:31:30;22.80;91.80
4435;DHT22;46552;52.150;8.428;2022-11-15T09:33:58;22.80;89.10
4435;DHT22;46552;52.150;8.428;2022-11-15T09:36:25;22.90;90.80
4435;DHT22;46552;52.150;8.428;2022-11-15T09:38:53;22.70;89.80
4435;DHT22;46552;52.150;8.428;2022-11-15T09:41:51;23.10;90.10
4435;DHT22;46552;52.150;8.428;2022-11-15T09:44:49;22.80;86.80
4435;DHT22;46552;52.150;8.428;2022-11-15T09:47:38;23.50;87.60
4435;DHT22;46552;52.150;8.428;2022-11-15T09:50:10;23.80;84.60
4435;DHT22;46552;52.150;8.428;2022-11-15T09:52:41;23.80;84.00
4435;DHT22;46552;52.150;8.428;2022-11-15T09:55:10;24.00;83.60
4435;DHT22;46552;52.150;8.428;2022-11-15T09:57:44;23.80;83.20
4435;DHT22;46552;52.150;8.428;2022-11-15T10:00:19;23.80;82.20
4435;DHT22;46552;52.150;8.428;2022-11-15T10:03:02;24.10;81.80
4435;DHT22;46552;52.150;8.428;2022-11-15T10:05:37;24.00;79.60
4435;DHT22;46552;52.150;8.428;2022-11-15T10:08:15;23.00;81.60
4435;DHT22;46552;52.150;8.428;2022-11-15T10:10:45;22.30;81.90
4435;DHT22;46552;52.150;8.428;2022-11-15T10:13:16;22.00;83.80
4435;DHT22;46552;52.150;8.428;2022-11-15T10:15:50;21.90;83.50
4435;DHT22;46552;52.150;8.428;2022-11-15T10:18:19;22.10;83.20
4435;DHT22;46552;52.150;8.428;2022-11-15T10:20:58;22.00;83.00
4435;DHT22;46552;52.150;8.428;2022-11-15T10:23:27;21.80;82.40
4435;DHT22;46552;52.150;8.428;2022-11-15T10:25:57;22.00;82.90
4435;DHT22;46552;52.150;8.428;2022-11-15T10:28:26;22.10;81.20
4435;DHT22;46552;52.150;8.428;2022-11-15T10:30:59;21.60;80.50
4435;DHT22;46552;52.150;8.428;2022-11-15T10:33:30;21.70;81.30
4435;DHT22;46552;52.150;8.428;2022-11-15T10:36:17;21.90;79.70
4435;DHT22;46552;52.150;8.428;2022-11-15T10:38:54;22.00;80.50
4435;DHT22;46552;52.150;8.428;2022-11-15T10:41:28;22.00;79.70
4435;DHT22;46552;52.150;8.428;2022-11-15T10:44:21;22.40;79.90
4435;DHT22;46552;52.150;8.428;2022-11-15T10:47:24;22.60;77.20
4435;DHT22;46552;52.150;8.428;2022-11-15T10:50:00;23.00;75.40
4435;DHT22;46552;52.150;8.428;2022-11-15T10:52:30;23.20;76.00
4435;DHT22;46552;52.150;8.428;2022-11-15T10:55:01;23.40;75.30
4435;DHT22;46552;52.150;8.428;2022-11-15T10:57:32;23.90;73.60
4435;DHT22;46552;52.150;8.428;2022-11-15T11:00:03;24.30;72.00
4435;DHT22;46552;52.150;8.428;2022-11-15T11:02:34;24.50;71.20
4435;DHT22;46552;52.150;8.428;2022-11-15T11:05:04;24.50;70.60
4435;DHT22;46552;52.150;8.428;2022-11-15T11:07:34;24.50;69.50
4435;DHT22;46552;52.150;8.428;2022-11-15T11:10:04;24.10;68.40
4435;DHT22;46552;52.150;8.428;2022-11-15T11:12:34;24.10;69.60
4435;DHT22;46552;52.150;8.428;2022-11-15T11:15:10;24.50;68.90
4435;DHT22;46552;52.150;8.428;2022-11-15T11:17:55;25.00;67.20
4435;DHT22;46552;52.150;8.428;2022-11-15T11:20:30;24.60;66.30
4435;DHT22;46552;52.150;8.428;2022-11-15T11:25:52;24.90;65.60
4435;DHT22;46552;52.150;8.428;2022-11-15T11:28:38;24.50;66.00
4435;DHT22;46552;52.150;8.428;2022-11-15T11:31:20;23.30;66.50
4435;DHT22;46552;52.150;8.428;2022-11-15T11:34:01;21.90;68.50
4435;DHT22;46552;52.150;8.428;2022-11-15T11:36:39;21.90;69.30
4435;DHT22;46552;52.150;8.428;2022-11-15T11:39:20;21.40;70.40
4435;DHT22;46552;52.150;8.428;2022-11-15T11:41:57;21.00;70.30
4435;DHT22;46552;52.150;8.428;2022-11-15T11:44:36;20.70;71.10
4435;DHT22;46552;52.150;8.428;2022-11-15T11:47:10;20.40;72.00
4435;DHT22;46552;52.150;8.428;2022-11-15T11:49:45;20.20;73.20
4435;DHT22;46552;52.150;8.428;2022-11-15T11:52:17;20.50;73.70
4435;DHT22;46552;52.150;8.428;2022-11-15T11:54:54;20.40;74.40
4435;DHT22;46552;52.150;8.428;2022-11-15T11:57:32;20.70;74.60
4435;DHT22;46552;52.150;8.428;2022-11-15T12:00:04;20.90;74.80
4435;DHT22;46552;52.150;8.428;2022-11-15T12:02:38;20.90;74.90
4435;DHT22;46552;52.150;8.428;2022-11-15T12:05:13;20.90;74.80
4435;DHT22;46552;52.150;8.428;2022-11-15T12:07:44;20.60;75.30
4435;DHT22;46552;52.150;8.428;2022-11-15T12:10:19;20.30;76.40
4435;DHT22;46552;52.150;8.428;2022-11-15T12:12:55;20.20;76.30
4435;DHT22;46552;52.150;8.428;2022-11-15T12:15:26;19.90;76.60
4435;DHT22;46552;52.150;8.428;2022-11-15T12:17:55;19.70;76.90
4435;DHT22;46552;52.150;8.428;2022-11-15T12:20:26;19.80;77.20
4435;DHT22;46552;52.150;8.428;2022-11-15T12:22:57;19.70;77.20
4435;DHT22;46552;52.150;8.428;2022-11-15T12:25:29;19.70;78.00
4435;DHT22;46552;52.150;8.428;2022-11-15T12:28:03;19.50;77.80
4435;DHT22;46552;52.150;8.428;2022-11-15T12:30:44;19.40;77.50
4435;DHT22;46552;52.150;8.428;2022-11-15T12:33:30;19.60;77.80
4435;DHT22;46552;52.150;8.428;2022-11-15T12:36:02;19.60;77.00
4435;DHT22;46552;52.150;8.428;2022-11-15T12:38:56;19.60;77.30
4435;DHT22;46552;52.150;8.428;2022-11-15T12:41:25;19.70;77.80
4435;DHT22;46552;52.150;8.428;2022-11-15T12:43:53;20.00;77.00
4435;DHT22;46552;52.150;8.428;2022-11-15T12:49:10;20.00;76.90
4435;DHT22;46552;52.150;8.428;2022-11-15T12:52:07;20.00;76.30
4435;DHT22;46552;52.150;8.428;2022-11-15T12:58:28;19.80;76.50
4435;DHT22;46552;52.150;8.428;2022-11-15T13:01:06;19.70;77.20
4435;DHT22;46552;52.150;8.428;2022-11-15T13:03:34;19.50;77.00
4435;DHT22;46552;52.150;8.428;2022-11-15T13:06:05;19.40;77.00
4435;DHT22;46552;52.150;8.428;2022-11-15T13:08:52;19.10;77.40
4435;DHT22;46552;52.150;8.428;2022-11-15T13:11:42;18.80;77.30
4435;DHT22;46552;52.150;8.428;2022-11-15T13:14:45;18.90;77.70
4435;DHT22;46552;52.150;8.428;2022-11-15T13:17:29;18.90;77.90
4435;DHT22;46552;52.150;8.428;2022-11-15T13:20:02;19.00;77.70
4435;DHT22;46552;52.150;8.428;2022-11-15T13:22:39;19.10;77.70
4435;DHT22;46552;52.150;8.428;2022-11-15T13:25:40;19.20;77.40
4435;DHT22;46552;52.150;8.428;2022-11-15T13:28:26;19.00;77.30
4435;DHT22;46552;52.150;8.428;2022-11-15T13:30:55;19.00;77.10
4435;DHT22;46552;52.150;8.428;2022-11-15T13:33:25;19.00;77.90
4435;DHT22;46552;52.150;8.428;2022-11-15T13:35:55;18.90;77.10
4435;DHT22;46552;52.150;8.428;2022-11-15T13:38:29;19.10;77.70
4435;DHT22;46552;52.150;8.428;2022-11-15T13:40:59;19.20;77.50
4435;DHT22;46552;52.150;8.428;2022-11-15T13:43:31;19.10;77.70
4435;DHT22;46552;52.150;8.428;2022-11-15T13:46:10;19.20;77.50
4435;DHT22;46552;52.150;8.428;2022-11-15T13:48:38;19.10;77.50
4435;DHT22;46552;52.150;8.428;2022-11-15T13:51:08;19.20;77.60
4435;DHT22;46552;52.150;8.428;2022-11-15T13:53:42;19.10;77.90
4435;DHT22;46552;52.150;8.428;2022-11-15T13:56:14;19.00;77.90
4435;DHT22;46552;52.150;8.428;2022-11-15T13:58:41;19.10;77.90
4435;DHT22;46552;52.150;8.428;2022-11-15T14:01:15;19.00;77.50
4435;DHT22;46552;52.150;8.428;2022-11-15T14:03:49;18.90;76.40
4435;DHT22;46552;52.150;8.428;2022-11-15T14:06:19;18.70;77.10
4435;DHT22;46552;52.150;8.428;2022-11-15T14:11:58;18.40;76.30
4435;DHT22;46552;52.150;8.428;2022-11-15T14:14:26;18.40;75.90
4435;DHT22;46552;52.150;8.428;2022-11-15T14:16:55;18.40;76.30
4435;DHT22;46552;52.150;8.428;2022-11-15T14:19:37;18.40;75.80
4435;DHT22;46552;52.150;8.428;2022-11-15T14:22:14;18.30;75.30
4435;DHT22;46552;52.150;8.428;2022-11-15T14:24:44;18.10;74.80
4435;DHT22;46552;52.150;8.428;2022-11-15T14:27:24;17.90;75.60
4435;DHT22;46552;52.150;8.428;2022-11-15T14:29:51;17.80;75.60
4435;DHT22;46552;52.150;8.428;2022-11-15T14:32:20;17.60;75.80
4435;DHT22;46552;52.150;8.428;2022-11-15T14:34:48;17.30;75.20
4435;DHT22;46552;52.150;8.428;2022-11-15T14:37:22;17.20;75.90
4435;DHT22;46552;52.150;8.428;2022-11-15T14:39:50;17.10;76.10
4435;DHT22;46552;52.150;8.428;2022-11-15T14:42:17;17.00;76.40
4435;DHT22;46552;52.150;8.428;2022-11-15T14:44:46;17.00;76.50
4435;DHT22;46552;52.150;8.428;2022-11-15T14:47:15;16.80;76.70
4435;DHT22;46552;52.150;8.428;2022-11-15T14:49:44;16.80;77.00
4435;DHT22;46552;52.150;8.428;2022-11-15T14:52:28;16.70;77.10
4435;DHT22;46552;52.150;8.428;2022-11-15T14:54:55;16.60;77.40
4435;DHT22;46552;52.150;8.428;2022-11-15T14:57:24;16.50;77.50
4435;DHT22;46552;52.150;8.428;2022-11-15T14:59:53;16.50;77.70
4435;DHT22;46552;52.150;8.428;2022-11-15T15:02:22;16.50;78.10
4435;DHT22;46552;52.150;8.428;2022-11-15T15:04:50;16.40;78.40
4435;DHT22;46552;52.150;8.428;2022-11-15T15:07:18;16.30;78.70
4435;DHT22;46552;52.150;8.428;2022-11-15T15:09:45;16.30;79.10
4435;DHT22;46552;52.150;8.428;2022-11-15T15:12:15;16.20;79.40
4435;DHT22;46552;52.150;8.428;2022-11-15T15:14:44;16.10;80.00
4435;DHT22;46552;52.150;8.428;2022-11-15T15:17:13;16.00;80.50
4435;DHT22;46552;52.150;8.428;2022-11-15T15:19:41;15.90;80.60
4435;DHT22;46552;52.150;8.428;2022-11-15T15:22:13;16.00;81.10
4435;DHT22;46552;52.150;8.428;2022-11-15T15:24:41;16.00;81.70
4435;DHT22;46552;52.150;8.428;2022-11-15T15:27:08;16.00;81.90
4435;DHT22;46552;52.150;8.428;2022-11-15T15:29:35;16.00;82.90
4435;DHT22;46552;52.150;8.428;2022-11-15T15:32:02;15.90;83.70
4435;DHT22;46552;52.150;8.428;2022-11-15T15:34:31;15.80;86.30
4435;DHT22;46552;52.150;8.428;2022-11-15T15:37:17;16.80;86.90
4435;DHT22;46552;52.150;8.428;2022-11-15T15:39:45;15.70;88.40
4435;DHT22;46552;52.150;8.428;2022-11-15T15:42:12;15.70;87.50
4435;DHT22;46552;52.150;8.428;2022-11-15T15:44:39;15.50;89.20
4435;DHT22;46552;52.150;8.428;2022-11-15T15:47:10;15.40;90.00
4435;DHT22;46552;52.150;8.428;2022-11-15T15:49:40;15.40;90.40
4435;DHT22;46552;52.150;8.428;2022-11-15T15:52:07;15.30;91.10
4435;DHT22;46552;52.150;8.428;2022-11-15T15:54:34;15.10;91.10
4435;DHT22;46552;52.150;8.428;2022-11-15T15:57:02;15.10;92.00
4435;DHT22;46552;52.150;8.428;2022-11-15T15:59:29;14.90;91.90
4435;DHT22;46552;52.150;8.428;2022-11-15T16:01:57;14.90;92.00
4435;DHT22;46552;52.150;8.428;2022-11-15T16:04:25;14.80;92.20
4435;DHT22;46552;52.150;8.428;2022-11-15T16:06:58;14.80;92.40
4435;DHT22;46552;52.150;8.428;2022-11-15T16:09:26;14.70;92.40
4435;DHT22;46552;52.150;8.428;2022-11-15T16:12:07;14.70;92.40
4435;DHT22;46552;52.150;8.428;2022-11-15T16:14:34;14.70;92.50
4435;DHT22;46552;52.150;8.428;2022-11-15T16:17:02;14.70;92.70
4435;DHT22;46552;52.150;8.428;2022-11-15T16:19:29;14.70;92.80
4435;DHT22;46552;52.150;8.428;2022-11-15T16:21:58;14.60;92.90
4435;DHT22;46552;52.150;8.428;2022-11-15T16:24:25;14.50;93.20
4435;DHT22;46552;52.150;8.428;2022-11-15T16:26:52;14.50;93.30
4435;DHT22;46552;52.150;8.428;2022-11-15T16:29:19;14.40;93.40